sensor_id;sensor_type;location;lat;lon;timestamp;pressure;altitude;pressure_sealevel;temperature;humidity
56518;BME280;42419;48.760;2.322;2023-09-19T00:00:23;100704.91;;;24.91;47.67
56518;BME280;42419;48.760;2.322;2023-09-19T00:02:54;100690.09;;;24.84;48.31
56518;BME280;42419;48.760;2.322;2023-09-19T00:05:25;100701.28;;;24.92;47.82
56518;BME280;42419;48.760;2.322;2023-09-19T00:07:53;100708.47;;;24.91;47.57
56518;BME280;42419;48.760;2.322;2023-09-19T00:10:20;100694.44;;;24.86;47.72
56518;BME280;42419;48.760;2.322;2023-09-19T00:12:47;100694.63;;;24.83;47.63
56518;BME280;42419;48.760;2.322;2023-09-19T00:15:12;100704.91;;;24.91;47.68
56518;BME280;42419;48.760;2.322;2023-09-19T00:17:37;100710.22;;;24.92;47.42
56518;BME280;42419;48.760;2.322;2023-09-19T00:20:06;100705.78;;;24.91;47.59
56518;BME280;42419;48.760;2.322;2023-09-19T00:22:40;100716.56;;;24.91;47.42
56518;BME280;42419;48.760;2.322;2023-09-19T00:25:05;100717.44;;;24.92;47.62
56518;BME280;42419;48.760;2.322;2023-09-19T00:27:31;100719.19;;;24.93;47.68
56518;BME280;42419;48.760;2.322;2023-09-19T00:29:58;100700.00;;;24.83;47.56
56518;BME280;42419;48.760;2.322;2023-09-19T00:32:24;100719.19;;;24.93;47.13
56518;BME280;42419;48.760;2.322;2023-09-19T00:34:49;100718.31;;;24.92;47.56
56518;BME280;42419;48.760;2.322;2023-09-19T00:37:15;100717.44;;;24.92;47.68
56518;BME280;42419;48.760;2.322;2023-09-19T00:39:42;100727.25;;;24.93;47.55
56518;BME280;42419;48.760;2.322;2023-09-19T00:42:08;100723.69;;;24.92;47.17
56518;BME280;42419;48.760;2.322;2023-09-19T00:44:33;100725.44;;;24.93;47.54
56518;BME280;42419;48.760;2.322;2023-09-19T00:47:00;100727.25;;;24.93;47.27
56518;BME280;42419;48.760;2.322;2023-09-19T00:49:27;100724.56;;;24.93;47.26
56518;BME280;42419;48.760;2.322;2023-09-19T00:51:53;100732.66;;;24.93;47.39
56518;BME280;42419;48.760;2.322;2023-09-19T00:54:18;100734.47;;;24.92;47.20
56518;BME280;42419;48.760;2.322;2023-09-19T00:56:45;100740.72;;;24.93;47.27
56518;BME280;42419;48.760;2.322;2023-09-19T00:59:11;100740.72;;;24.93;47.07
56518;BME280;42419;48.760;2.322;2023-09-19T01:01:37;100735.41;;;24.91;47.40
56518;BME280;42419;48.760;2.322;2023-09-19T01:04:05;100718.78;;;24.85;47.45
56518;BME280;42419;48.760;2.322;2023-09-19T01:06:31;100742.56;;;24.92;47.07
56518;BME280;42419;48.760;2.322;2023-09-19T01:08:56;100743.41;;;24.93;47.69
56518;BME280;42419;48.760;2.322;2023-09-19T01:11:31;100731.84;;;24.91;47.32
56518;BME280;42419;48.760;2.322;2023-09-19T01:14:24;100743.63;;;24.90;47.28
56518;BME280;42419;48.760;2.322;2023-09-19T01:17:14;100740.81;;;24.91;47.52
56518;BME280;42419;48.760;2.322;2023-09-19T01:28:07;100744.72;;;24.86;47.82
56518;BME280;42419;48.760;2.322;2023-09-19T01:30:43;100740.13;;;24.88;47.21
56518;BME280;42419;48.760;2.322;2023-09-19T01:33:09;100741.09;;;24.87;47.05
56518;BME280;42419;48.760;2.322;2023-09-19T01:35:38;100750.91;;;24.88;47.27
56518;BME280;42419;48.760;2.322;2023-09-19T01:38:05;100743.69;;;24.88;46.64
56518;BME280;42419;48.760;2.322;2023-09-19T01:40:31;100746.38;;;24.88;47.17
56518;BME280;42419;48.760;2.322;2023-09-19T01:43:12;100746.47;;;24.87;46.58
56518;BME280;42419;48.760;2.322;2023-09-19T01:48:23;100750.91;;;24.88;45.89
56518;BME280;42419;48.760;2.322;2023-09-19T01:51:02;100749.94;;;24.89;46.24
56518;BME280;42419;48.760;2.322;2023-09-19T01:53:46;100750.91;;;24.88;46.29
56518;BME280;42419;48.760;2.322;2023-09-19T01:56:21;100750.81;;;24.89;46.67
56518;BME280;42419;48.760;2.322;2023-09-19T01:58:49;100758.78;;;24.91;46.33
56518;BME280;42419;48.760;2.322;2023-09-19T02:01:22;100759.78;;;24.90;46.32
56518;BME280;42419;48.760;2.322;2023-09-19T02:03:48;100764.19;;;24.91;45.81
56518;BME280;42419;48.760;2.322;2023-09-19T02:06:17;100760.63;;;24.90;46.45
56518;BME280;42419;48.760;2.322;2023-09-19T02:08:44;100757.25;;;24.87;46.19
56518;BME280;42419;48.760;2.322;2023-09-19T02:11:13;100765.91;;;24.92;45.75
56518;BME280;42419;48.760;2.322;2023-09-19T02:13:38;100766.00;;;24.90;46.08
56518;BME280;42419;48.760;2.322;2023-09-19T02:16:04;100759.78;;;24.90;45.94
56518;BME280;42419;48.760;2.322;2023-09-19T02:18:30;100773.06;;;24.93;45.90
56518;BME280;42419;48.760;2.322;2023-09-19T02:20:56;100759.59;;;24.93;45.74
56518;BME280;42419;48.760;2.322;2023-09-19T02:23:24;100754.56;;;24.87;45.79
56518;BME280;42419;48.760;2.322;2023-09-19T02:25:56;100756.28;;;24.88;45.53
56518;BME280;42419;48.760;2.322;2023-09-19T02:28:28;100764.03;;;24.94;46.20
56518;BME280;42419;48.760;2.322;2023-09-19T02:30:57;100757.75;;;24.93;45.66
56518;BME280;42419;48.760;2.322;2023-09-19T02:33:23;100756.97;;;24.91;45.99
56518;BME280;42419;48.760;2.322;2023-09-19T02:35:48;100753.25;;;24.94;45.40
56518;BME280;42419;48.760;2.322;2023-09-19T02:38:14;100757.66;;;24.95;45.99
56518;BME280;42419;48.760;2.322;2023-09-19T02:40:43;100755.34;;;24.89;45.60
56518;BME280;42419;48.760;2.322;2023-09-19T02:43:08;100760.34;;;24.95;45.86
56518;BME280;42419;48.760;2.322;2023-09-19T02:45:35;100766.59;;;24.95;45.28
56518;BME280;42419;48.760;2.322;2023-09-19T02:48:00;100762.09;;;24.96;45.37
56518;BME280;42419;48.760;2.322;2023-09-19T02:50:27;100759.38;;;24.96;45.38
56518;BME280;42419;48.760;2.322;2023-09-19T02:52:52;100759.38;;;24.96;45.29
56518;BME280;42419;48.760;2.322;2023-09-19T02:55:19;100771.13;;;24.95;45.26
56518;BME280;42419;48.760;2.322;2023-09-19T02:57:48;100757.66;;;24.95;45.04
56518;BME280;42419;48.760;2.322;2023-09-19T03:00:13;100765.66;;;24.96;45.14
56518;BME280;42419;48.760;2.322;2023-09-19T03:02:39;100758.63;;;24.94;45.53
56518;BME280;42419;48.760;2.322;2023-09-19T03:05:07;100744.66;;;24.87;45.29
56518;BME280;42419;48.760;2.322;2023-09-19T03:07:32;100757.56;;;24.96;45.03
56518;BME280;42419;48.760;2.322;2023-09-19T03:09:58;100745.03;;;24.95;45.50
56518;BME280;42419;48.760;2.322;2023-09-19T03:12:25;100750.34;;;24.97;45.63
56518;BME280;42419;48.760;2.322;2023-09-19T03:14:50;100757.47;;;24.98;45.18
56518;BME280;42419;48.760;2.322;2023-09-19T03:17:15;100753.91;;;24.97;44.88
56518;BME280;42419;48.760;2.322;2023-09-19T03:19:41;100755.75;;;24.97;44.70
56518;BME280;42419;48.760;2.322;2023-09-19T03:22:06;100738.13;;;24.91;44.87
56518;BME280;42419;48.760;2.322;2023-09-19T03:24:32;100750.34;;;24.97;44.94
56518;BME280;42419;48.760;2.322;2023-09-19T03:26:59;100749.56;;;24.95;44.98
56518;BME280;42419;48.760;2.322;2023-09-19T03:29:24;100747.66;;;24.97;44.94
56518;BME280;42419;48.760;2.322;2023-09-19T03:31:50;100749.69;;;24.93;44.82
56518;BME280;42419;48.760;2.322;2023-09-19T03:34:16;100758.44;;;24.97;44.55
56518;BME280;42419;48.760;2.322;2023-09-19T03:36:41;100762.00;;;24.97;44.54
56518;BME280;42419;48.760;2.322;2023-09-19T03:39:07;100762.97;;;24.96;44.53
56518;BME280;42419;48.760;2.322;2023-09-19T03:41:32;100759.31;;;24.97;45.10
56518;BME280;42419;48.760;2.322;2023-09-19T03:44:02;100758.44;;;24.97;44.61
56518;BME280;42419;48.760;2.322;2023-09-19T03:46:28;100749.50;;;24.96;44.86
56518;BME280;42419;48.760;2.322;2023-09-19T03:48:53;100755.94;;;24.94;44.56
56518;BME280;42419;48.760;2.322;2023-09-19T03:51:20;100711.53;;;24.71;44.89
56518;BME280;42419;48.760;2.322;2023-09-19T03:53:45;100758.44;;;24.97;44.78
56518;BME280;42419;48.760;2.322;2023-09-19T03:56:10;100753.06;;;24.97;44.63
56518;BME280;42419;48.760;2.322;2023-09-19T03:58:36;100750.34;;;24.97;44.99
56518;BME280;42419;48.760;2.322;2023-09-19T04:01:04;100751.22;;;24.97;44.95
56518;BME280;42419;48.760;2.322;2023-09-19T04:03:32;100743.16;;;24.97;44.99
56518;BME280;42419;48.760;2.322;2023-09-19T04:06:10;100750.34;;;24.97;44.68
56518;BME280;42419;48.760;2.322;2023-09-19T04:08:36;100751.22;;;24.97;44.95
56518;BME280;42419;48.760;2.322;2023-09-19T04:11:02;100747.75;;;24.95;44.56
56518;BME280;42419;48.760;2.322;2023-09-19T04:13:27;100760.25;;;24.96;44.67
56518;BME280;42419;48.760;2.322;2023-09-19T04:15:53;100707.94;;;24.71;44.75
56518;BME280;42419;48.760;2.322;2023-09-19T04:18:18;100748.63;;;24.96;44.86
56518;BME280;42419;48.760;2.322;2023-09-19T04:20:52;100753.25;;;24.94;45.03
56518;BME280;42419;48.760;2.322;2023-09-19T04:23:18;100727.63;;;24.87;45.01
56518;BME280;42419;48.760;2.322;2023-09-19T04:25:46;100745.03;;;24.95;44.84
56518;BME280;42419;48.760;2.322;2023-09-19T04:28:11;100747.84;;;24.94;44.81
56518;BME280;42419;48.760;2.322;2023-09-19T04:30:37;100718.25;;;24.78;44.47
56518;BME280;42419;48.760;2.322;2023-09-19T04:33:05;100748.72;;;24.94;44.20
56518;BME280;42419;48.760;2.322;2023-09-19T04:35:31;100748.72;;;24.94;44.56
56518;BME280;42419;48.760;2.322;2023-09-19T04:37:57;100744.56;;;24.89;44.52
56518;BME280;42419;48.760;2.322;2023-09-19T04:40:22;100754.94;;;24.95;44.08
56518;BME280;42419;48.760;2.322;2023-09-19T04:42:56;100751.50;;;24.93;43.93
56518;BME280;42419;48.760;2.322;2023-09-19T04:45:22;100748.72;;;24.94;44.34
56518;BME280;42419;48.760;2.322;2023-09-19T04:47:47;100742.47;;;24.94;44.19
56518;BME280;42419;48.760;2.322;2023-09-19T04:50:13;100746.88;;;24.95;43.87
56518;BME280;42419;48.760;2.322;2023-09-19T04:52:45;100747.00;;;24.93;44.42
56518;BME280;42419;48.760;2.322;2023-09-19T04:55:14;100751.41;;;24.94;43.79
56518;BME280;42419;48.760;2.322;2023-09-19T04:57:45;100749.69;;;24.93;44.03
56518;BME280;42419;48.760;2.322;2023-09-19T05:00:15;100756.69;;;24.96;44.08
56518;BME280;42419;48.760;2.322;2023-09-19T05:02:42;100751.41;;;24.94;44.15
56518;BME280;42419;48.760;2.322;2023-09-19T05:05:08;100765.72;;;24.95;44.37
56518;BME280;42419;48.760;2.322;2023-09-19T05:07:36;100766.88;;;24.91;44.08
56518;BME280;42419;48.760;2.322;2023-09-19T05:10:03;100763.16;;;24.93;43.81
56518;BME280;42419;48.760;2.322;2023-09-19T05:12:32;100767.47;;;24.96;44.11
56518;BME280;42419;48.760;2.322;2023-09-19T05:14:57;100776.50;;;24.95;44.28
56518;BME280;42419;48.760;2.322;2023-09-19T05:17:22;100768.34;;;24.96;44.19
56518;BME280;42419;48.760;2.322;2023-09-19T05:19:49;100774.69;;;24.95;43.70
56518;BME280;42419;48.760;2.322;2023-09-19T05:22:15;100757.09;;;24.90;43.93
56518;BME280;42419;48.760;2.322;2023-09-19T05:24:40;100767.59;;;24.94;43.34
56518;BME280;42419;48.760;2.322;2023-09-19T05:27:05;100768.41;;;24.95;43.63
56518;BME280;42419;48.760;2.322;2023-09-19T05:29:32;100771.13;;;24.95;43.76
56518;BME280;42419;48.760;2.322;2023-09-19T05:31:58;100772.84;;;24.96;43.60
56518;BME280;42419;48.760;2.322;2023-09-19T05:34:24;100772.84;;;24.96;43.95
56518;BME280;42419;48.760;2.322;2023-09-19T05:36:51;100785.38;;;24.97;43.75
56518;BME280;42419;48.760;2.322;2023-09-19T05:39:17;100779.13;;;24.96;43.47
56518;BME280;42419;48.760;2.322;2023-09-19T05:41:42;100768.63;;;24.92;44.02
56518;BME280;42419;48.760;2.322;2023-09-19T05:44:08;100789.03;;;24.96;43.81
56518;BME280;42419;48.760;2.322;2023-09-19T05:46:33;100789.91;;;24.96;43.77
56518;BME280;42419;48.760;2.322;2023-09-19T05:48:58;100793.38;;;24.98;44.21
56518;BME280;42419;48.760;2.322;2023-09-19T05:51:24;100793.38;;;24.98;43.89
56518;BME280;42419;48.760;2.322;2023-09-19T05:53:50;100792.50;;;24.98;44.12
56518;BME280;42419;48.760;2.322;2023-09-19T05:56:15;100802.31;;;24.99;44.15
56518;BME280;42419;48.760;2.322;2023-09-19T05:58:43;100809.44;;;25.00;43.98
56518;BME280;42419;48.760;2.322;2023-09-19T06:01:09;100807.59;;;25.00;44.21
56518;BME280;42419;48.760;2.322;2023-09-19T06:03:35;100812.13;;;25.00;43.78
56518;BME280;42419;48.760;2.322;2023-09-19T06:06:03;100806.72;;;25.00;44.28
56518;BME280;42419;48.760;2.322;2023-09-19T06:08:31;100806.72;;;25.00;44.44
56518;BME280;42419;48.760;2.322;2023-09-19T06:10:57;100808.47;;;25.01;43.85
56518;BME280;42419;48.760;2.322;2023-09-19T06:13:22;100812.03;;;25.01;43.93
56518;BME280;42419;48.760;2.322;2023-09-19T06:15:48;100807.53;;;25.02;43.71
56518;BME280;42419;48.760;2.322;2023-09-19T06:18:14;100807.53;;;25.02;44.08
56518;BME280;42419;48.760;2.322;2023-09-19T06:20:45;100808.56;;;24.99;43.36
56518;BME280;42419;48.760;2.322;2023-09-19T06:23:10;100817.16;;;25.06;44.38
56518;BME280;42419;48.760;2.322;2023-09-19T06:25:36;100821.59;;;25.07;44.35
56518;BME280;42419;48.760;2.322;2023-09-19T06:28:01;100811.84;;;25.04;43.96
56518;BME280;42419;48.760;2.322;2023-09-19T06:30:30;100816.97;;;25.09;44.43
56518;BME280;42419;48.760;2.322;2023-09-19T06:32:57;100810.66;;;25.10;43.74
56518;BME280;42419;48.760;2.322;2023-09-19T06:35:23;100823.19;;;25.11;43.95
56518;BME280;42419;48.760;2.322;2023-09-19T06:37:51;100818.56;;;25.13;43.75
56518;BME280;42419;48.760;2.322;2023-09-19T06:40:16;100825.69;;;25.14;44.24
56518;BME280;42419;48.760;2.322;2023-09-19T06:42:43;100825.59;;;25.16;43.84
56518;BME280;42419;48.760;2.322;2023-09-19T06:45:12;100831.94;;;25.15;43.98
56518;BME280;42419;48.760;2.322;2023-09-19T06:47:39;100824.66;;;25.17;43.16
56518;BME280;42419;48.760;2.322;2023-09-19T06:50:05;100831.75;;;25.18;43.13
56518;BME280;42419;48.760;2.322;2023-09-19T06:52:31;100822.72;;;25.19;43.65
56518;BME280;42419;48.760;2.322;2023-09-19T06:54:58;100829.94;;;25.18;43.17
56518;BME280;42419;48.760;2.322;2023-09-19T06:57:23;100830.81;;;25.19;43.44
56518;BME280;42419;48.760;2.322;2023-09-19T06:59:49;100829.84;;;25.20;43.36
56518;BME280;42419;48.760;2.322;2023-09-19T07:02:15;100824.53;;;25.18;43.51
56518;BME280;42419;48.760;2.322;2023-09-19T07:04:40;100828.91;;;25.21;43.63
56518;BME280;42419;48.760;2.322;2023-09-19T07:07:06;100824.38;;;25.21;43.07
56518;BME280;42419;48.760;2.322;2023-09-19T07:09:34;100837.84;;;25.21;43.40
56518;BME280;42419;48.760;2.322;2023-09-19T07:11:59;100833.31;;;25.22;42.98
56518;BME280;42419;48.760;2.322;2023-09-19T07:14:25;100822.13;;;25.14;43.07
56518;BME280;42419;48.760;2.322;2023-09-19T07:16:51;100837.75;;;25.23;43.14
56518;BME280;42419;48.760;2.322;2023-09-19T07:19:17;100822.72;;;25.19;43.17
56518;BME280;42419;48.760;2.322;2023-09-19T07:21:42;100832.28;;;25.24;43.24
56518;BME280;42419;48.760;2.322;2023-09-19T07:24:08;100816.47;;;25.18;42.95
56518;BME280;42419;48.760;2.322;2023-09-19T07:26:33;100832.06;;;25.27;42.97
56518;BME280;42419;48.760;2.322;2023-09-19T07:28:59;100820.34;;;25.28;42.66
56518;BME280;42419;48.760;2.322;2023-09-19T07:31:25;100821.22;;;25.29;42.70
56518;BME280;42419;48.760;2.322;2023-09-19T07:33:53;100822.84;;;25.31;42.96
56518;BME280;42419;48.760;2.322;2023-09-19T07:36:18;100815.63;;;25.32;42.38
56518;BME280;42419;48.760;2.322;2023-09-19T07:38:44;100794.75;;;25.21;43.00
56518;BME280;42419;48.760;2.322;2023-09-19T07:41:09;100821.91;;;25.32;42.75
56518;BME280;42419;48.760;2.322;2023-09-19T07:43:35;100824.59;;;25.32;43.05
56518;BME280;42419;48.760;2.322;2023-09-19T07:46:05;100819.19;;;25.32;42.96
56518;BME280;42419;48.760;2.322;2023-09-19T07:48:37;100816.84;;;25.26;42.82
56518;BME280;42419;48.760;2.322;2023-09-19T07:51:06;100812.47;;;25.25;42.63
56518;BME280;42419;48.760;2.322;2023-09-19T07:53:33;100822.69;;;25.34;42.59
56518;BME280;42419;48.760;2.322;2023-09-19T07:56:07;100814.00;;;25.29;42.87
56518;BME280;42419;48.760;2.322;2023-09-19T07:58:33;100822.47;;;25.37;43.20
56518;BME280;42419;48.760;2.322;2023-09-19T08:01:06;100817.09;;;25.37;43.22
56518;BME280;42419;48.760;2.322;2023-09-19T08:03:32;100820.00;;;25.34;43.02
56518;BME280;42419;48.760;2.322;2023-09-19T08:05:58;100825.84;;;25.41;43.32
56518;BME280;42419;48.760;2.322;2023-09-19T08:08:23;100818.66;;;25.41;43.09
56518;BME280;42419;48.760;2.322;2023-09-19T08:10:56;100824.03;;;25.41;43.07
56518;BME280;42419;48.760;2.322;2023-09-19T08:13:25;100819.44;;;25.43;42.97
56518;BME280;42419;48.760;2.322;2023-09-19T08:15:51;100807.34;;;25.35;42.26
56518;BME280;42419;48.760;2.322;2023-09-19T08:18:20;100831.06;;;25.44;42.69
56518;BME280;42419;48.760;2.322;2023-09-19T08:20:51;100822.97;;;25.44;42.70
56518;BME280;42419;48.760;2.322;2023-09-19T08:23:17;100829.22;;;25.44;42.18
56518;BME280;42419;48.760;2.322;2023-09-19T08:25:46;100830.97;;;25.45;42.44
56518;BME280;42419;48.760;2.322;2023-09-19T08:28:11;100822.13;;;25.43;42.89
56518;BME280;42419;48.760;2.322;2023-09-19T08:30:37;100822.00;;;25.45;42.84
56518;BME280;42419;48.760;2.322;2023-09-19T08:33:05;100831.06;;;25.44;42.56
56518;BME280;42419;48.760;2.322;2023-09-19T08:35:31;100834.47;;;25.47;42.79
56518;BME280;42419;48.760;2.322;2023-09-19T08:37:57;100829.94;;;25.48;42.71
56518;BME280;42419;48.760;2.322;2023-09-19T08:40:22;100836.09;;;25.50;42.23
56518;BME280;42419;48.760;2.322;2023-09-19T08:45:14;100828.66;;;25.54;42.93
56518;BME280;42419;48.760;2.322;2023-09-19T08:47:46;100833.03;;;25.56;42.43
56518;BME280;42419;48.760;2.322;2023-09-19T08:50:21;100839.09;;;25.60;42.18
56518;BME280;42419;48.760;2.322;2023-09-19T08:52:51;100836.03;;;25.66;42.47
56518;BME280;42419;48.760;2.322;2023-09-19T08:55:20;100842.25;;;25.66;42.06
56518;BME280;42419;48.760;2.322;2023-09-19T08:57:49;100831.59;;;25.65;41.96
56518;BME280;42419;48.760;2.322;2023-09-19T09:00:16;100835.38;;;25.76;41.79
56518;BME280;42419;48.760;2.322;2023-09-19T09:02:46;100822.19;;;25.72;41.24
56518;BME280;42419;48.760;2.322;2023-09-19T09:05:12;100830.50;;;25.83;41.49
56518;BME280;42419;48.760;2.322;2023-09-19T09:07:40;100833.84;;;25.86;41.40
56518;BME280;42419;48.760;2.322;2023-09-19T09:10:07;100820.44;;;25.85;41.17
56518;BME280;42419;48.760;2.322;2023-09-19T09:12:34;100829.72;;;25.95;40.80
56518;BME280;42419;48.760;2.322;2023-09-19T09:15:02;100829.44;;;26.00;40.86
56518;BME280;42419;48.760;2.322;2023-09-19T09:17:29;100823.75;;;26.04;40.90
56518;BME280;42419;48.760;2.322;2023-09-19T09:19:55;100834.16;;;26.10;41.02
56518;BME280;42419;48.760;2.322;2023-09-19T09:22:21;100822.88;;;26.18;41.23
56518;BME280;42419;48.760;2.322;2023-09-19T09:24:54;100822.56;;;26.22;39.78
56518;BME280;42419;48.760;2.322;2023-09-19T09:27:20;100809.75;;;26.26;40.21
56518;BME280;42419;48.760;2.322;2023-09-19T09:29:47;100819.78;;;26.38;40.23
56518;BME280;42419;48.760;2.322;2023-09-19T09:34:48;100820.81;;;26.50;39.62
56518;BME280;42419;48.760;2.322;2023-09-19T09:37:15;100777.94;;;26.31;39.66
56518;BME280;42419;48.760;2.322;2023-09-19T09:39:49;100815.47;;;26.62;39.39
56518;BME280;42419;48.760;2.322;2023-09-19T09:42:33;100817.56;;;26.71;38.85
56518;BME280;42419;48.760;2.322;2023-09-19T09:45:20;100803.75;;;26.76;38.95
56518;BME280;42419;48.760;2.322;2023-09-19T09:47:59;100804.88;;;26.86;38.93
56518;BME280;42419;48.760;2.322;2023-09-19T09:50:33;100812.41;;;26.95;37.97
56518;BME280;42419;48.760;2.322;2023-09-19T09:53:23;100813.94;;;26.99;38.37
56518;BME280;42419;48.760;2.322;2023-09-19T09:55:59;100816.00;;;27.08;38.05
56518;BME280;42419;48.760;2.322;2023-09-19T09:58:25;100815.38;;;27.17;38.09
56518;BME280;42419;48.760;2.322;2023-09-19T10:00:58;100808.97;;;27.18;38.19
56518;BME280;42419;48.760;2.322;2023-09-19T10:03:46;100813.03;;;27.26;37.61
56518;BME280;42419;48.760;2.322;2023-09-19T10:06:17;100805.78;;;27.39;37.88
56518;BME280;42419;48.760;2.322;2023-09-19T10:09:04;100793.34;;;27.36;37.29
56518;BME280;42419;48.760;2.322;2023-09-19T10:11:44;100806.16;;;27.47;36.80
56518;BME280;42419;48.760;2.322;2023-09-19T10:14:15;100791.44;;;27.51;36.78
56518;BME280;42419;48.760;2.322;2023-09-19T10:16:53;100778.00;;;27.49;36.68
56518;BME280;42419;48.760;2.322;2023-09-19T10:19:43;100789.84;;;27.61;36.67
56518;BME280;42419;48.760;2.322;2023-09-19T10:22:12;100790.47;;;27.64;37.03
56518;BME280;42419;48.760;2.322;2023-09-19T10:24:40;100775.84;;;27.54;36.92
56518;BME280;42419;48.760;2.322;2023-09-19T10:27:06;100788.19;;;27.58;36.97
56518;BME280;42419;48.760;2.322;2023-09-19T10:29:39;100787.44;;;27.56;36.93
56518;BME280;42419;48.760;2.322;2023-09-19T10:32:06;100776.19;;;27.50;36.96
56518;BME280;42419;48.760;2.322;2023-09-19T10:34:35;100772.94;;;27.45;36.79
56518;BME280;42419;48.760;2.322;2023-09-19T10:37:02;100774.66;;;27.46;36.78
56518;BME280;42419;48.760;2.322;2023-09-19T10:39:31;100778.75;;;27.39;37.19
56518;BME280;42419;48.760;2.322;2023-09-19T10:42:01;100785.75;;;27.29;37.41
56518;BME280;42419;48.760;2.322;2023-09-19T10:44:32;100793.53;;;27.20;37.49
56518;BME280;42419;48.760;2.322;2023-09-19T10:46:57;100777.84;;;27.13;36.75
56518;BME280;42419;48.760;2.322;2023-09-19T10:49:23;100759.31;;;26.94;37.12
56518;BME280;42419;48.760;2.322;2023-09-19T10:51:53;100777.94;;;26.99;37.40
56518;BME280;42419;48.760;2.322;2023-09-19T10:54:26;100763.56;;;26.84;37.47
56518;BME280;42419;48.760;2.322;2023-09-19T10:56:53;100771.47;;;26.87;37.80
56518;BME280;42419;48.760;2.322;2023-09-19T10:59:20;100775.25;;;26.85;37.72
56518;BME280;42419;48.760;2.322;2023-09-19T11:01:53;100779.13;;;26.80;37.81
56518;BME280;42419;48.760;2.322;2023-09-19T11:04:34;100779.13;;;26.80;37.96
56518;BME280;42419;48.760;2.322;2023-09-19T11:09:49;100777.16;;;26.70;37.83
56518;BME280;42419;48.760;2.322;2023-09-19T11:14:56;100763.59;;;26.57;38.12
56518;BME280;42419;48.760;2.322;2023-09-19T11:17:38;100780.28;;;26.64;38.16
56518;BME280;42419;48.760;2.322;2023-09-19T11:30:50;100753.66;;;26.58;37.92
56518;BME280;42419;48.760;2.322;2023-09-19T11:33:16;100753.34;;;26.62;37.95
56518;BME280;42419;48.760;2.322;2023-09-19T11:36:09;100751.69;;;26.60;37.89
56518;BME280;42419;48.760;2.322;2023-09-19T11:46:33;100761.97;;;26.55;38.33
56518;BME280;42419;48.760;2.322;2023-09-19T11:49:07;100756.75;;;26.52;38.34
56518;BME280;42419;48.760;2.322;2023-09-19T11:51:42;100762.47;;;26.47;38.19
56518;BME280;42419;48.760;2.322;2023-09-19T11:54:11;100765.47;;;26.43;37.97
56518;BME280;42419;48.760;2.322;2023-09-19T11:56:43;100756.63;;;26.41;38.20
56518;BME280;42419;48.760;2.322;2023-09-19T11:59:09;100767.59;;;26.38;38.45
56518;BME280;42419;48.760;2.322;2023-09-19T12:01:37;100773.22;;;26.34;38.43
56518;BME280;42419;48.760;2.322;2023-09-19T12:04:08;100763.63;;;26.29;38.47
56518;BME280;42419;48.760;2.322;2023-09-19T12:06:35;100751.59;;;26.20;38.40
56518;BME280;42419;48.760;2.322;2023-09-19T12:09:04;100771.94;;;26.26;38.39
56518;BME280;42419;48.760;2.322;2023-09-19T12:11:41;100765.88;;;26.22;39.01
56518;BME280;42419;48.760;2.322;2023-09-19T12:14:08;100753.72;;;26.15;39.13
56518;BME280;42419;48.760;2.322;2023-09-19T12:16:33;100761.22;;;26.24;39.02
56518;BME280;42419;48.760;2.322;2023-09-19T12:19:17;100751.59;;;26.20;39.23
56518;BME280;42419;48.760;2.322;2023-09-19T12:21:54;100751.59;;;26.20;38.81
56518;BME280;42419;48.760;2.322;2023-09-19T12:24:20;100754.88;;;26.25;39.14
56518;BME280;42419;48.760;2.322;2023-09-19T12:26:46;100753.91;;;26.26;38.74
56518;BME280;42419;48.760;2.322;2023-09-19T12:29:21;100748.44;;;26.28;39.30
56518;BME280;42419;48.760;2.322;2023-09-19T12:31:54;100736.41;;;26.19;39.62
56518;BME280;42419;48.760;2.322;2023-09-19T12:34:26;100751.81;;;26.31;38.85
56518;BME280;42419;48.760;2.322;2023-09-19T12:39:49;100748.59;;;26.25;38.69
56518;BME280;42419;48.760;2.322;2023-09-19T12:42:23;100722.50;;;26.11;38.21
56518;BME280;42419;48.760;2.322;2023-09-19T12:44:51;100732.72;;;26.20;38.28
56518;BME280;42419;48.760;2.322;2023-09-19T12:47:21;100713.25;;;26.15;38.70
56518;BME280;42419;48.760;2.322;2023-09-19T12:52:42;100721.81;;;26.36;39.21
56518;BME280;42419;48.760;2.322;2023-09-19T12:55:19;100719.00;;;26.38;39.39
56518;BME280;42419;48.760;2.322;2023-09-19T12:57:58;100713.59;;;26.38;39.64
56518;BME280;42419;48.760;2.322;2023-09-19T13:00:34;100719.00;;;26.38;39.64
56518;BME280;42419;48.760;2.322;2023-09-19T13:03:14;100713.81;;;26.34;39.61
56518;BME280;42419;48.760;2.322;2023-09-19T13:05:57;100718.16;;;26.37;39.53
56518;BME280;42419;48.760;2.322;2023-09-19T13:08:32;100700.78;;;26.27;39.46
56518;BME280;42419;48.760;2.322;2023-09-19T13:11:11;100715.75;;;26.32;39.60
56518;BME280;42419;48.760;2.322;2023-09-19T13:13:48;100723.09;;;26.30;38.79
56518;BME280;42419;48.760;2.322;2023-09-19T13:16:15;100712.28;;;26.30;39.60
56518;BME280;42419;48.760;2.322;2023-09-19T13:18:52;100708.78;;;26.28;39.70
56518;BME280;42419;48.760;2.322;2023-09-19T13:21:32;100714.19;;;26.28;39.78
56518;BME280;42419;48.760;2.322;2023-09-19T13:24:23;100708.31;;;26.36;39.50
56518;BME280;42419;48.760;2.322;2023-09-19T13:26:51;100706.84;;;26.45;39.31
56518;BME280;42419;48.760;2.322;2023-09-19T13:29:17;100710.09;;;26.50;39.41
56518;BME280;42419;48.760;2.322;2023-09-19T13:31:52;100714.31;;;26.54;39.16
56518;BME280;42419;48.760;2.322;2023-09-19T13:34:19;100699.00;;;26.54;39.04
56518;BME280;42419;48.760;2.322;2023-09-19T13:36:45;100691.94;;;26.52;39.00
56518;BME280;42419;48.760;2.322;2023-09-19T13:39:14;100692.72;;;26.54;39.28
56518;BME280;42419;48.760;2.322;2023-09-19T13:41:41;100652.91;;;26.30;39.38
56518;BME280;42419;48.760;2.322;2023-09-19T13:44:07;100633.19;;;26.28;39.44